JZI weather

Charleston Executive Airport
Charleston, South Carolina, United States

Public forecast

Using degrees Fahrenheit for public forecast. Weather courtesy of forecast.io.

METAR (pilot weather report)

Retrieved 2019/06/19 22:35 UTC (14 minutes ago):

KJZI 192235Z AUTO 22009G15KT 7SM VCTS FEW020 FEW045 FEW070 27/25 A2984 RMK AO2 LTG DSNT NW

TAF (pilot weather forecast)

Closest forecast is Charleston Air Force Base-International Airport, 12.0 nm (22.3 km) N. Retrieved 2019/06/19 18:12 UTC (5 hours ago):

TAF COR KCHS 191803Z 1918/2018 22010G18KT P6SM VCTS SCT040CB BKN080 TEMPO 1919/1923 4SM -TSRA BR SCT025 BKN040CB FM192300 21010KT P6SM SCT050 BKN100 FM200100 22008KT P6SM FEW060 FM201400 25014G21KT P6SM BKN050